createdAt,value
2018-06-28T00:01:41.085Z,69.40
2018-06-28T00:04:09.648Z,69.90
2018-06-28T00:06:38.229Z,70.70
2018-06-28T00:09:08.751Z,70.00
2018-06-28T00:11:37.601Z,69.20
2018-06-28T00:14:06.492Z,70.60
2018-06-28T00:16:35.950Z,70.60
2018-06-28T00:19:05.078Z,70.60
2018-06-28T00:24:02.602Z,65.90
2018-06-28T00:26:31.544Z,62.90
2018-06-28T00:29:00.438Z,65.30
2018-06-28T00:33:57.897Z,69.70
2018-06-28T00:38:55.388Z,69.50
2018-06-28T00:43:52.454Z,70.60
2018-06-28T00:46:20.971Z,71.90
2018-06-28T00:48:49.558Z,72.00
2018-06-28T00:51:18.116Z,72.70
2018-06-28T00:53:46.643Z,73.10
2018-06-28T00:56:15.620Z,73.40
2018-06-28T00:58:44.498Z,72.50
2018-06-28T01:01:14.598Z,72.10
2018-06-28T01:03:43.633Z,72.80
2018-06-28T01:06:12.475Z,73.30
2018-06-28T01:08:41.400Z,73.60
2018-06-28T01:11:10.363Z,73.70
2018-06-28T01:13:39.265Z,72.90
2018-06-28T01:16:08.176Z,72.90
2018-06-28T01:18:37.067Z,73.80
2018-06-28T01:21:05.996Z,74.00
2018-06-28T01:23:34.905Z,75.20
2018-06-28T01:26:03.766Z,75.30
2018-06-28T01:28:32.636Z,74.10
2018-06-28T01:31:01.536Z,73.20
2018-06-28T01:33:30.416Z,74.00
2018-06-28T01:35:59.263Z,74.30
2018-06-28T01:38:28.126Z,74.50
2018-06-28T01:43:41.460Z,75.50
2018-06-28T01:46:10.309Z,75.70
2018-06-28T01:48:38.926Z,75.80
2018-06-28T01:51:07.636Z,74.90
2018-06-28T01:53:36.191Z,75.10
2018-06-28T01:56:04.957Z,74.50
2018-06-28T01:58:33.535Z,73.10
2018-06-28T02:01:02.214Z,74.20
2018-06-28T02:03:30.790Z,74.70
2018-06-28T02:05:59.366Z,75.00
2018-06-28T02:08:27.880Z,76.10
2018-06-28T02:10:56.629Z,77.00
2018-06-28T02:13:25.488Z,76.60
2018-06-28T02:18:22.972Z,77.00
2018-06-28T02:20:51.608Z,77.00
2018-06-28T02:23:20.139Z,77.20
2018-06-28T02:25:48.695Z,77.50
2018-06-28T02:28:17.238Z,77.30
2018-06-28T02:30:46.009Z,76.50
2018-06-28T02:33:14.873Z,75.90
2018-06-28T02:38:12.348Z,77.30
2018-06-28T02:43:09.402Z,78.60
2018-06-28T02:45:37.954Z,78.90
2018-06-28T02:48:06.475Z,79.50
2018-06-28T02:50:35.258Z,79.30
2018-06-28T02:55:32.767Z,80.40
2018-06-28T02:58:01.631Z,80.60
2018-06-28T03:00:30.269Z,80.70
2018-06-28T03:02:58.843Z,80.40
2018-06-28T03:05:27.436Z,80.90
2018-06-28T03:07:55.949Z,81.30
2018-06-28T03:12:53.303Z,81.10
2018-06-28T03:15:22.293Z,81.50
2018-06-28T03:17:51.204Z,81.80
2018-06-28T03:20:20.124Z,80.70
2018-06-28T03:22:49.003Z,79.20
2018-06-28T03:25:17.950Z,77.90
2018-06-28T03:27:46.916Z,74.80
2018-06-28T03:30:15.783Z,77.90
2018-06-28T03:32:44.729Z,80.00
2018-06-28T03:35:13.601Z,77.10
2018-06-28T03:37:42.590Z,75.40
2018-06-28T03:40:11.259Z,78.10
2018-06-28T03:42:39.811Z,79.50
2018-06-28T03:45:08.409Z,79.10
2018-06-28T03:47:36.943Z,79.30
2018-06-28T03:50:05.609Z,79.70
2018-06-28T03:52:34.179Z,80.40
2018-06-28T03:55:02.796Z,80.10
2018-06-28T03:57:31.527Z,80.00
2018-06-28T04:00:00.263Z,81.40
2018-06-28T04:02:29.254Z,81.80
2018-06-28T04:04:58.124Z,81.90
2018-06-28T04:07:26.978Z,83.10
2018-06-28T04:09:55.826Z,82.20
2018-06-28T04:12:24.664Z,81.60
2018-06-28T04:14:53.561Z,80.70
2018-06-28T04:17:22.416Z,80.40
2018-06-28T04:22:24.989Z,78.90
2018-06-28T04:24:53.849Z,78.40
2018-06-28T04:27:22.811Z,79.60
2018-06-28T04:32:19.988Z,80.00
2018-06-28T04:34:48.516Z,80.10
2018-06-28T04:37:17.084Z,79.90
2018-06-28T04:39:45.827Z,79.30
2018-06-28T04:42:14.768Z,78.50
2018-06-28T04:44:43.616Z,78.20
2018-06-28T04:47:12.446Z,77.90
2018-06-28T04:49:41.321Z,76.30
2018-06-28T04:52:10.168Z,74.50
2018-06-28T04:54:39.006Z,73.80
2018-06-28T04:57:08.019Z,72.50
2018-06-28T04:59:36.936Z,71.90
2018-06-28T05:04:34.725Z,71.30
2018-06-28T05:07:03.758Z,70.10
2018-06-28T05:09:32.611Z,70.90
2018-06-28T05:12:01.522Z,69.40
2018-06-28T05:14:30.633Z,68.20
2018-06-28T05:16:59.516Z,68.00
2018-06-28T05:19:28.448Z,67.20
2018-06-28T05:21:57.474Z,67.30
2018-06-28T05:24:26.534Z,66.10
2018-06-28T05:26:55.450Z,66.60
2018-06-28T05:29:24.112Z,66.30
2018-06-28T05:31:53.216Z,65.70
2018-06-28T05:34:21.783Z,66.60
2018-06-28T05:36:50.383Z,65.10
2018-06-28T05:39:18.957Z,66.10
2018-06-28T05:41:47.559Z,65.10
2018-06-28T05:44:16.108Z,65.70
2018-06-28T05:46:44.654Z,65.30
2018-06-28T05:49:13.518Z,65.00
2018-06-28T05:51:42.447Z,64.60
2018-06-28T05:54:11.390Z,63.40
2018-06-28T05:56:40.271Z,63.40
2018-06-28T05:59:08.948Z,62.90
2018-06-28T06:04:06.044Z,61.20
2018-06-28T06:06:34.671Z,59.20
2018-06-28T06:09:03.956Z,58.70
2018-06-28T06:11:32.544Z,57.10
2018-06-28T06:14:01.219Z,56.90
2018-06-28T06:16:29.798Z,55.60
2018-06-28T06:18:58.602Z,55.30
2018-06-28T06:21:27.571Z,56.00
2018-06-28T06:23:56.410Z,56.90
2018-06-28T06:26:25.312Z,53.80
2018-06-28T06:31:22.468Z,51.00
2018-06-28T06:33:51.068Z,48.80
2018-06-28T06:36:19.701Z,49.10
2018-06-28T06:38:48.256Z,47.60
2018-06-28T06:41:16.849Z,47.90
2018-06-28T06:43:45.423Z,44.90
2018-06-28T06:46:14.004Z,46.30
2018-06-28T06:48:42.801Z,45.90
2018-06-28T06:53:39.859Z,44.00
2018-06-28T06:56:08.516Z,43.70
2018-06-28T06:58:37.476Z,43.70
2018-06-28T07:01:06.451Z,43.10
2018-06-28T07:03:35.386Z,44.30
2018-06-28T07:06:04.561Z,43.30
2018-06-28T07:11:01.641Z,43.40
2018-06-28T07:13:30.238Z,42.50
2018-06-28T07:15:59.057Z,42.80
2018-06-28T07:18:27.963Z,41.40
2018-06-28T07:20:56.841Z,40.90
2018-06-28T07:23:25.444Z,41.90
2018-06-28T07:25:54.246Z,41.30
2018-06-28T07:28:22.823Z,41.20
2018-06-28T07:30:51.512Z,40.20
2018-06-28T07:33:20.296Z,38.80
2018-06-28T07:35:49.183Z,39.50
2018-06-28T07:38:18.026Z,41.50
2018-06-28T07:40:46.909Z,40.00
2018-06-28T07:43:15.769Z,39.60
2018-06-28T07:45:44.621Z,39.30
2018-06-28T07:48:13.494Z,40.00
2018-06-28T07:50:42.427Z,40.20
2018-06-28T07:53:11.507Z,39.00
2018-06-28T07:55:40.030Z,38.40
2018-06-28T08:00:36.977Z,41.20
2018-06-28T08:03:05.592Z,39.00
2018-06-28T08:05:34.212Z,38.60
2018-06-28T08:08:02.827Z,39.70
2018-06-28T08:10:31.386Z,39.40
2018-06-28T08:12:59.941Z,37.70
2018-06-28T08:15:28.542Z,36.80
2018-06-28T08:17:57.116Z,37.60
2018-06-28T08:20:26.476Z,36.90
2018-06-28T08:22:55.048Z,37.10
2018-06-28T08:25:23.616Z,37.60
2018-06-28T08:27:52.191Z,35.60
2018-06-28T08:30:20.729Z,33.00
2018-06-28T08:32:49.516Z,33.70
2018-06-28T08:35:18.484Z,34.40
2018-06-28T08:37:47.448Z,33.30
2018-06-28T08:40:17.681Z,33.20
2018-06-28T08:42:46.599Z,33.50
2018-06-28T08:45:15.583Z,31.80
2018-06-28T08:47:44.465Z,30.70
2018-06-28T08:50:13.336Z,31.10
2018-06-28T08:52:42.019Z,32.60
2018-06-28T08:55:10.641Z,31.80
2018-06-28T08:57:39.351Z,30.80
2018-06-28T09:00:09.086Z,32.10
2018-06-28T09:02:37.968Z,32.20
2018-06-28T09:05:06.846Z,29.00
2018-06-28T09:07:36.076Z,28.60
2018-06-28T09:10:05.084Z,27.90
2018-06-28T09:12:33.824Z,29.20
2018-06-28T09:15:02.383Z,28.10
2018-06-28T09:17:30.968Z,29.70
2018-06-28T09:19:59.504Z,28.60
2018-06-28T09:22:28.198Z,30.00
2018-06-28T09:24:56.723Z,30.00
2018-06-28T09:27:25.281Z,29.60
2018-06-28T09:29:53.873Z,28.30
2018-06-28T09:32:22.669Z,28.70
2018-06-28T09:34:51.581Z,28.80
2018-06-28T09:37:20.477Z,28.70
2018-06-28T09:39:49.384Z,28.70
2018-06-28T09:42:18.089Z,27.80
2018-06-28T09:44:46.763Z,28.90
2018-06-28T09:47:15.378Z,28.70
2018-06-28T09:49:43.961Z,28.60
2018-06-28T09:52:12.809Z,28.40
2018-06-28T09:54:41.771Z,27.90
2018-06-28T09:57:10.644Z,28.80
2018-06-28T09:59:39.726Z,27.30
2018-06-28T10:02:08.441Z,26.40
2018-06-28T10:04:37.143Z,28.10
2018-06-28T10:07:06.374Z,28.10
2018-06-28T10:09:35.504Z,26.40
2018-06-28T10:12:04.381Z,27.10
2018-06-28T10:14:33.323Z,27.40
2018-06-28T10:17:02.312Z,27.30
2018-06-28T10:19:31.262Z,26.80
2018-06-28T10:22:00.114Z,26.40
2018-06-28T10:24:28.956Z,26.60
2018-06-28T10:26:58.703Z,25.20
2018-06-28T10:29:27.561Z,25.00
2018-06-28T10:31:56.369Z,24.90
2018-06-28T10:34:25.271Z,24.40
2018-06-28T10:36:54.151Z,24.60
2018-06-28T10:39:23.140Z,23.80
2018-06-28T10:41:52.182Z,23.00
2018-06-28T10:44:21.239Z,22.80
2018-06-28T10:46:50.229Z,24.00
2018-06-28T10:49:19.110Z,22.60
2018-06-28T10:51:48.045Z,23.40
2018-06-28T10:54:16.894Z,23.30
2018-06-28T10:56:46.421Z,24.70
2018-06-28T10:59:15.089Z,24.70
2018-06-28T11:01:43.647Z,24.70
2018-06-28T11:06:40.893Z,24.20
2018-06-28T11:09:11.548Z,25.20
2018-06-28T11:11:40.798Z,23.60
2018-06-28T11:14:09.669Z,24.90
2018-06-28T11:16:38.713Z,25.90
2018-06-28T11:19:07.372Z,25.30
2018-06-28T11:21:35.962Z,24.30
2018-06-28T11:24:04.727Z,24.20
2018-06-28T11:26:33.347Z,23.00
2018-06-28T11:29:01.966Z,25.10
2018-06-28T11:31:30.532Z,24.30
2018-06-28T11:33:59.125Z,23.30
2018-06-28T11:36:27.709Z,25.00
2018-06-28T11:38:56.294Z,24.60
2018-06-28T11:41:24.891Z,25.00
2018-06-28T11:43:53.606Z,24.10
2018-06-28T11:46:22.192Z,23.90
2018-06-28T11:48:50.869Z,24.60
2018-06-28T11:51:19.639Z,25.20
2018-06-28T11:53:48.267Z,23.30
2018-06-28T11:56:17.028Z,24.70
2018-06-28T11:58:45.873Z,24.60
2018-06-28T12:01:14.853Z,24.90
2018-06-28T12:03:43.684Z,23.50
2018-06-28T12:06:12.347Z,24.00
2018-06-28T12:08:40.951Z,23.00
2018-06-28T12:11:09.886Z,24.40
2018-06-28T12:13:38.479Z,24.30
2018-06-28T12:16:07.116Z,25.30
2018-06-28T12:18:35.776Z,27.10
2018-06-28T12:21:04.367Z,28.60
2018-06-28T12:23:34.704Z,29.20
2018-06-28T12:26:03.442Z,29.40
2018-06-28T12:28:32.512Z,28.80
2018-06-28T12:31:01.585Z,26.70
2018-06-28T12:33:30.636Z,24.70
2018-06-28T12:35:59.561Z,23.80
2018-06-28T12:38:29.916Z,24.10
2018-06-28T12:40:58.534Z,25.10
2018-06-28T12:43:29.245Z,24.80
2018-06-28T12:45:59.042Z,25.90
2018-06-28T12:48:27.765Z,23.40
2018-06-28T12:50:56.321Z,24.50
2018-06-28T12:53:24.949Z,24.70
2018-06-28T12:56:29.871Z,26.10
2018-06-28T12:59:01.302Z,24.40
2018-06-28T13:01:30.556Z,24.20
2018-06-28T13:03:59.439Z,24.20
2018-06-28T13:06:28.378Z,23.00
2018-06-28T13:08:57.946Z,23.10
2018-06-28T13:11:27.176Z,25.20
2018-06-28T13:13:56.053Z,25.20
2018-06-28T13:16:26.973Z,24.90
2018-06-28T13:18:55.881Z,25.00
2018-06-28T13:21:24.707Z,25.20
2018-06-28T13:23:53.600Z,26.50
2018-06-28T13:26:22.588Z,25.40
2018-06-28T13:28:51.464Z,24.80
2018-06-28T13:31:20.404Z,24.10
2018-06-28T13:33:49.359Z,22.10
2018-06-28T13:36:18.157Z,22.00
2018-06-28T13:38:47.292Z,22.20
2018-06-28T13:41:16.382Z,23.10
2018-06-28T13:43:45.116Z,22.20
2018-06-28T13:46:14.032Z,22.40
2018-06-28T13:48:42.977Z,23.00
2018-06-28T13:51:12.784Z,23.20
2018-06-28T13:53:41.775Z,23.10
2018-06-28T13:56:10.847Z,22.80
2018-06-28T13:58:39.546Z,22.70
2018-06-28T14:01:08.244Z,21.70
2018-06-28T14:03:37.653Z,22.30
2018-06-28T14:06:06.995Z,21.60
2018-06-28T14:08:35.801Z,21.80
2018-06-28T14:11:04.721Z,21.10
2018-06-28T14:13:33.626Z,22.90
2018-06-28T14:16:02.514Z,23.40
2018-06-28T14:18:31.439Z,23.10
2018-06-28T14:21:00.423Z,23.70
2018-06-28T14:23:29.433Z,23.70
2018-06-28T14:25:58.364Z,25.40
2018-06-28T14:28:27.371Z,24.00
2018-06-28T14:33:24.916Z,23.00
2018-06-28T14:35:53.748Z,22.80
2018-06-28T14:38:23.606Z,22.90
2018-06-28T14:40:52.511Z,22.40
2018-06-28T14:43:22.286Z,21.60
2018-06-28T14:45:51.184Z,22.80
2018-06-28T14:48:20.096Z,23.30
2018-06-28T14:50:48.974Z,24.30
2018-06-28T14:53:17.821Z,26.20
2018-06-28T14:55:46.778Z,26.30
2018-06-28T14:58:15.630Z,26.20
2018-06-28T15:00:44.304Z,26.50
2018-06-28T15:03:12.915Z,26.00
2018-06-28T15:05:41.512Z,27.00
2018-06-28T15:08:10.137Z,26.40
2018-06-28T15:10:38.876Z,26.90
2018-06-28T15:13:08.938Z,25.70
2018-06-28T15:15:37.484Z,25.80
2018-06-28T15:18:06.087Z,26.90
2018-06-28T15:20:34.859Z,26.80
2018-06-28T15:23:03.810Z,27.70
2018-06-28T15:25:32.845Z,26.90
2018-06-28T15:28:01.874Z,27.80
2018-06-28T15:30:31.534Z,27.40
2018-06-28T15:33:00.506Z,28.60
2018-06-28T15:35:29.037Z,28.10
2018-06-28T15:37:58.404Z,29.30
2018-06-28T15:40:27.084Z,29.10
2018-06-28T15:42:55.863Z,29.30
2018-06-28T15:45:24.864Z,30.90
2018-06-28T15:47:53.749Z,31.10
2018-06-28T15:50:22.636Z,32.00
2018-06-28T15:52:51.536Z,32.20
2018-06-28T15:55:20.366Z,32.90
2018-06-28T15:57:49.248Z,32.60
2018-06-28T16:00:18.142Z,32.60
2018-06-28T16:02:47.047Z,33.60
2018-06-28T16:05:15.941Z,34.30
2018-06-28T16:07:44.838Z,34.60
2018-06-28T16:10:13.703Z,36.00
2018-06-28T16:12:42.573Z,35.00
2018-06-28T16:15:11.443Z,34.80
2018-06-28T16:17:44.531Z,36.00
2018-06-28T16:20:13.607Z,36.20
2018-06-28T16:22:42.599Z,36.70
2018-06-28T16:25:11.504Z,37.70
2018-06-28T16:27:40.331Z,36.10
2018-06-28T16:30:09.207Z,37.00
2018-06-28T16:32:37.936Z,37.70
2018-06-28T16:35:06.556Z,38.90
2018-06-28T16:37:35.235Z,38.50
2018-06-28T16:40:03.941Z,37.50
2018-06-28T16:42:32.597Z,37.60
2018-06-28T16:45:01.230Z,37.50
2018-06-28T16:47:29.827Z,38.40
2018-06-28T16:49:58.445Z,38.90
2018-06-28T16:52:27.371Z,39.50
2018-06-28T16:54:56.296Z,39.70
2018-06-28T16:57:25.139Z,39.40
2018-06-28T16:59:54.124Z,40.00
2018-06-28T17:02:22.818Z,40.10
2018-06-28T17:04:51.414Z,40.50
2018-06-28T17:07:20.616Z,41.60
2018-06-28T17:09:49.481Z,42.10
2018-06-28T17:12:19.147Z,41.60
2018-06-28T17:14:48.049Z,41.90
2018-06-28T17:17:17.815Z,42.50
2018-06-28T17:19:46.695Z,43.50
2018-06-28T17:22:15.787Z,44.90
2018-06-28T17:24:45.624Z,44.00
2018-06-28T17:27:14.486Z,44.00
2018-06-28T17:29:43.388Z,44.70
2018-06-28T17:32:12.309Z,45.20
2018-06-28T17:34:41.419Z,45.20
2018-06-28T17:37:10.302Z,45.40
2018-06-28T17:39:39.152Z,46.20
2018-06-28T17:42:07.978Z,46.90
2018-06-28T17:44:36.815Z,47.30
2018-06-28T17:47:06.017Z,47.40
2018-06-28T17:49:35.071Z,48.30
2018-06-28T17:52:03.718Z,48.10
2018-06-28T17:54:32.314Z,48.30
2018-06-28T17:57:01.624Z,48.90
2018-06-28T17:59:30.249Z,49.60
2018-06-28T18:01:59.769Z,48.60
2018-06-28T18:04:28.699Z,49.20
2018-06-28T18:06:57.577Z,48.90
2018-06-28T18:09:26.632Z,49.70
2018-06-28T18:11:55.454Z,50.20
2018-06-28T18:14:24.354Z,50.50
2018-06-28T18:16:53.269Z,51.20
2018-06-28T18:19:22.233Z,51.30
2018-06-28T18:21:51.135Z,52.10
2018-06-28T18:24:19.935Z,52.20
2018-06-28T18:26:48.531Z,52.30
2018-06-28T18:29:17.099Z,52.60
2018-06-28T18:31:45.628Z,52.60
2018-06-28T18:34:14.184Z,53.50
2018-06-28T18:36:42.921Z,54.30
2018-06-28T18:39:11.810Z,54.50
2018-06-28T18:41:40.702Z,54.70
2018-06-28T18:44:09.702Z,55.10
2018-06-28T18:46:38.517Z,55.40
2018-06-28T18:49:07.416Z,55.30
2018-06-28T18:51:36.290Z,55.80
2018-06-28T18:54:05.223Z,55.80
2018-06-28T18:56:34.538Z,55.90
2018-06-28T18:59:03.463Z,55.90
2018-06-28T19:04:02.048Z,57.00
2018-06-28T19:06:30.762Z,57.30
2018-06-28T19:08:59.391Z,58.40
2018-06-28T19:11:28.404Z,58.30
2018-06-28T19:14:02.710Z,57.90
2018-06-28T19:16:39.173Z,58.30
2018-06-28T19:19:07.921Z,58.00
2018-06-28T19:21:42.181Z,58.30
2018-06-28T19:24:11.758Z,58.60
2018-06-28T19:26:40.476Z,59.20
2018-06-28T19:29:16.152Z,59.20
2018-06-28T19:31:50.594Z,59.10
2018-06-28T19:34:19.356Z,59.20
2018-06-28T19:36:48.136Z,59.70
2018-06-28T19:39:22.624Z,60.30
2018-06-28T19:41:57.114Z,60.40
2018-06-28T19:44:26.119Z,60.30
2018-06-28T19:46:55.191Z,60.30
2018-06-28T19:52:03.777Z,59.60
2018-06-28T19:54:33.756Z,59.60
2018-06-28T19:57:02.816Z,59.60
2018-06-28T19:59:36.326Z,59.50
2018-06-28T20:02:10.954Z,59.60
2018-06-28T20:04:45.360Z,59.80
2018-06-28T20:07:14.701Z,60.80
2018-06-28T20:09:43.731Z,60.80
2018-06-28T20:12:17.966Z,60.30
2018-06-28T20:14:52.027Z,60.40
2018-06-28T20:17:26.859Z,60.90
2018-06-28T20:20:02.776Z,61.30
2018-06-28T20:22:31.726Z,61.60
2018-06-28T20:25:01.336Z,62.00
2018-06-28T20:27:35.629Z,62.10
2018-06-28T20:30:11.148Z,62.50
2018-06-28T20:32:45.342Z,63.20
2018-06-28T20:35:14.669Z,64.00
2018-06-28T20:37:43.754Z,64.70
2018-06-28T20:40:13.002Z,65.70
2018-06-28T20:42:44.314Z,65.20
2018-06-28T20:45:13.528Z,65.30
2018-06-28T20:47:42.239Z,65.40
2018-06-28T20:50:10.917Z,65.20
2018-06-28T20:52:39.545Z,65.00
2018-06-28T20:55:08.184Z,65.10
2018-06-28T20:57:37.856Z,65.00
2018-06-28T21:00:08.444Z,65.30
2018-06-28T21:02:37.297Z,65.30
2018-06-28T21:05:05.979Z,65.10
2018-06-28T21:07:34.704Z,65.00
2018-06-28T21:10:04.569Z,64.70
2018-06-28T21:12:34.087Z,64.50
2018-06-28T21:15:03.102Z,64.30
2018-06-28T21:17:32.449Z,64.10
2018-06-28T21:20:01.232Z,64.20
2018-06-28T21:22:29.874Z,64.50
2018-06-28T21:24:58.494Z,64.50
2018-06-28T21:27:28.688Z,64.70
2018-06-28T21:29:59.011Z,64.30
2018-06-28T21:32:27.716Z,64.30
2018-06-28T21:34:56.451Z,64.00
2018-06-28T21:37:25.287Z,63.90
2018-06-28T21:39:54.547Z,65.30
2018-06-28T21:42:23.445Z,66.70
2018-06-28T21:44:52.446Z,67.60
2018-06-28T21:47:21.386Z,67.40
2018-06-28T21:49:50.339Z,67.60
2018-06-28T21:52:19.317Z,68.00
2018-06-28T21:54:48.252Z,67.70
2018-06-28T21:57:17.430Z,68.30
2018-06-28T21:59:46.436Z,67.70
2018-06-28T22:02:15.389Z,69.00
2018-06-28T22:04:44.354Z,67.00
2018-06-28T22:07:13.316Z,67.80
2018-06-28T22:09:42.434Z,68.00
2018-06-28T22:12:11.359Z,68.00
2018-06-28T22:14:40.291Z,69.20
2018-06-28T22:17:09.266Z,69.20
2018-06-28T22:19:38.298Z,69.60
2018-06-28T22:22:07.366Z,69.80
2018-06-28T22:24:36.296Z,70.30
2018-06-28T22:27:05.294Z,69.80
2018-06-28T22:29:35.215Z,68.50
2018-06-28T22:32:04.159Z,69.50
2018-06-28T22:34:33.056Z,68.20
2018-06-28T22:37:01.775Z,68.00
2018-06-28T22:39:30.336Z,68.10
2018-06-28T22:41:58.965Z,68.60
2018-06-28T22:44:27.536Z,68.80
2018-06-28T22:46:56.315Z,69.40
2018-06-28T22:49:25.805Z,70.00
2018-06-28T22:51:54.726Z,70.60
2018-06-28T22:54:23.588Z,71.40
2018-06-28T22:56:52.595Z,72.30
2018-06-28T22:59:21.169Z,72.90
2018-06-28T23:01:49.727Z,74.00
2018-06-28T23:04:18.258Z,74.60
2018-06-28T23:06:46.784Z,75.00
2018-06-28T23:09:15.336Z,75.40
2018-06-28T23:11:43.896Z,75.70
2018-06-28T23:14:12.444Z,76.40
2018-06-28T23:16:40.987Z,76.70
2018-06-28T23:19:09.602Z,74.60
2018-06-28T23:21:38.193Z,74.10
2018-06-28T23:24:06.816Z,74.00
2018-06-28T23:26:35.373Z,74.10
2018-06-28T23:29:04.046Z,74.40
2018-06-28T23:31:32.599Z,75.10
2018-06-28T23:34:01.727Z,74.50
2018-06-28T23:36:30.305Z,75.90
2018-06-28T23:38:58.854Z,77.90
2018-06-28T23:41:27.414Z,78.90
2018-06-28T23:43:55.969Z,79.00
2018-06-28T23:46:24.724Z,79.10
2018-06-28T23:51:22.194Z,79.70
2018-06-28T23:53:51.111Z,80.30
2018-06-28T23:56:19.766Z,80.40
2018-06-28T23:58:48.344Z,80.70
